sensor_id;sensor_type;location;lat;lon;timestamp;P1;durP1;ratioP1;P2;durP2;ratioP2
50483;SDS011;36409;52.168;20.878;2022-12-15T00:01:04;59.97;;;26.47;;
50483;SDS011;36409;52.168;20.878;2022-12-15T00:03:51;52.27;;;25.43;;
50483;SDS011;36409;52.168;20.878;2022-12-15T00:06:38;54.63;;;25.67;;
50483;SDS011;36409;52.168;20.878;2022-12-15T00:09:26;53.73;;;25.93;;
50483;SDS011;36409;52.168;20.878;2022-12-15T00:12:14;48.63;;;25.60;;
50483;SDS011;36409;52.168;20.878;2022-12-15T00:15:01;59.57;;;27.07;;
50483;SDS011;36409;52.168;20.878;2022-12-15T00:17:49;55.30;;;26.83;;
50483;SDS011;36409;52.168;20.878;2022-12-15T00:20:37;51.20;;;25.80;;
50483;SDS011;36409;52.168;20.878;2022-12-15T00:23:24;57.57;;;27.40;;
50483;SDS011;36409;52.168;20.878;2022-12-15T00:26:12;54.27;;;25.93;;
50483;SDS011;36409;52.168;20.878;2022-12-15T00:28:59;49.47;;;25.40;;
50483;SDS011;36409;52.168;20.878;2022-12-15T00:31:47;51.23;;;25.63;;
50483;SDS011;36409;52.168;20.878;2022-12-15T00:34:34;54.77;;;24.77;;
50483;SDS011;36409;52.168;20.878;2022-12-15T00:37:22;54.30;;;24.03;;
50483;SDS011;36409;52.168;20.878;2022-12-15T00:40:10;55.80;;;24.43;;
50483;SDS011;36409;52.168;20.878;2022-12-15T00:42:40;61.20;;;27.90;;
50483;SDS011;36409;52.168;20.878;2022-12-15T00:45:09;41.45;;;17.80;;
50483;SDS011;36409;52.168;20.878;2022-12-15T00:47:38;50.50;;;25.33;;
50483;SDS011;36409;52.168;20.878;2022-12-15T00:50:07;51.33;;;25.17;;
50483;SDS011;36409;52.168;20.878;2022-12-15T00:52:55;53.30;;;25.23;;
50483;SDS011;36409;52.168;20.878;2022-12-15T00:55:42;52.23;;;24.33;;
50483;SDS011;36409;52.168;20.878;2022-12-15T00:58:29;49.60;;;24.43;;
50483;SDS011;36409;52.168;20.878;2022-12-15T01:01:16;53.63;;;25.40;;
50483;SDS011;36409;52.168;20.878;2022-12-15T01:04:04;50.03;;;23.67;;
50483;SDS011;36409;52.168;20.878;2022-12-15T01:06:51;53.63;;;25.73;;
50483;SDS011;36409;52.168;20.878;2022-12-15T01:09:38;52.27;;;24.37;;
50483;SDS011;36409;52.168;20.878;2022-12-15T01:12:25;49.00;;;25.23;;
50483;SDS011;36409;52.168;20.878;2022-12-15T01:15:12;53.73;;;26.13;;
50483;SDS011;36409;52.168;20.878;2022-12-15T01:17:59;48.97;;;25.33;;
50483;SDS011;36409;52.168;20.878;2022-12-15T01:20:53;51.80;;;24.80;;
50483;SDS011;36409;52.168;20.878;2022-12-15T01:23:23;49.77;;;24.13;;
50483;SDS011;36409;52.168;20.878;2022-12-15T01:25:52;55.27;;;25.43;;
50483;SDS011;36409;52.168;20.878;2022-12-15T01:28:24;54.33;;;26.13;;
50483;SDS011;36409;52.168;20.878;2022-12-15T01:30:53;52.73;;;27.30;;
50483;SDS011;36409;52.168;20.878;2022-12-15T01:33:25;52.37;;;25.50;;
50483;SDS011;36409;52.168;20.878;2022-12-15T01:35:55;50.87;;;26.70;;
50483;SDS011;36409;52.168;20.878;2022-12-15T01:38:26;57.17;;;26.93;;
50483;SDS011;36409;52.168;20.878;2022-12-15T01:41:01;52.13;;;26.70;;
50483;SDS011;36409;52.168;20.878;2022-12-15T01:43:32;53.23;;;25.33;;
50483;SDS011;36409;52.168;20.878;2022-12-15T01:46:04;53.83;;;26.87;;
50483;SDS011;36409;52.168;20.878;2022-12-15T01:48:36;50.87;;;25.67;;
50483;SDS011;36409;52.168;20.878;2022-12-15T01:51:10;55.78;;;26.82;;
50483;SDS011;36409;52.168;20.878;2022-12-15T01:53:46;54.67;;;25.60;;
50483;SDS011;36409;52.168;20.878;2022-12-15T01:56:20;49.90;;;25.57;;
50483;SDS011;36409;52.168;20.878;2022-12-15T01:58:53;53.80;;;27.17;;
50483;SDS011;36409;52.168;20.878;2022-12-15T02:01:27;47.17;;;24.13;;
50483;SDS011;36409;52.168;20.878;2022-12-15T02:03:57;52.60;;;25.40;;
50483;SDS011;36409;52.168;20.878;2022-12-15T02:06:27;47.80;;;24.50;;
50483;SDS011;36409;52.168;20.878;2022-12-15T02:08:57;54.83;;;25.93;;
50483;SDS011;36409;52.168;20.878;2022-12-15T02:11:40;48.40;;;25.20;;
50483;SDS011;36409;52.168;20.878;2022-12-15T02:14:19;46.57;;;23.37;;
50483;SDS011;36409;52.168;20.878;2022-12-15T02:17:05;48.73;;;25.33;;
50483;SDS011;36409;52.168;20.878;2022-12-15T02:19:52;51.47;;;24.37;;
50483;SDS011;36409;52.168;20.878;2022-12-15T02:22:54;46.40;;;23.40;;
50483;SDS011;36409;52.168;20.878;2022-12-15T02:25:52;46.07;;;24.33;;
50483;SDS011;36409;52.168;20.878;2022-12-15T02:28:39;51.27;;;25.13;;
50483;SDS011;36409;52.168;20.878;2022-12-15T02:31:19;55.60;;;27.90;;
50483;SDS011;36409;52.168;20.878;2022-12-15T02:34:18;51.50;;;25.20;;
50483;SDS011;36409;52.168;20.878;2022-12-15T02:36:54;50.57;;;24.33;;
50483;SDS011;36409;52.168;20.878;2022-12-15T02:39:27;48.37;;;24.47;;
50483;SDS011;36409;52.168;20.878;2022-12-15T02:41:57;53.63;;;25.83;;
50483;SDS011;36409;52.168;20.878;2022-12-15T02:44:28;54.07;;;26.53;;
50483;SDS011;36409;52.168;20.878;2022-12-15T02:47:17;52.43;;;25.33;;
50483;SDS011;36409;52.168;20.878;2022-12-15T02:49:59;51.47;;;24.50;;
50483;SDS011;36409;52.168;20.878;2022-12-15T02:52:47;50.67;;;25.50;;
50483;SDS011;36409;52.168;20.878;2022-12-15T02:55:28;57.13;;;26.83;;
50483;SDS011;36409;52.168;20.878;2022-12-15T02:58:07;53.70;;;26.43;;
50483;SDS011;36409;52.168;20.878;2022-12-15T03:00:45;52.20;;;27.00;;
50483;SDS011;36409;52.168;20.878;2022-12-15T03:03:20;56.00;;;26.67;;
50483;SDS011;36409;52.168;20.878;2022-12-15T03:05:50;52.07;;;26.03;;
50483;SDS011;36409;52.168;20.878;2022-12-15T03:08:20;52.97;;;26.70;;
50483;SDS011;36409;52.168;20.878;2022-12-15T03:10:51;57.27;;;26.27;;
50483;SDS011;36409;52.168;20.878;2022-12-15T03:13:23;51.68;;;26.95;;
50483;SDS011;36409;52.168;20.878;2022-12-15T03:15:52;55.00;;;26.87;;
50483;SDS011;36409;52.168;20.878;2022-12-15T03:18:21;56.10;;;29.23;;
50483;SDS011;36409;52.168;20.878;2022-12-15T03:20:51;53.97;;;28.07;;
50483;SDS011;36409;52.168;20.878;2022-12-15T03:23:20;51.87;;;25.47;;
50483;SDS011;36409;52.168;20.878;2022-12-15T03:25:49;58.03;;;27.60;;
50483;SDS011;36409;52.168;20.878;2022-12-15T03:28:19;52.13;;;25.83;;
50483;SDS011;36409;52.168;20.878;2022-12-15T03:30:48;47.53;;;25.27;;
50483;SDS011;36409;52.168;20.878;2022-12-15T03:33:19;50.70;;;26.07;;
50483;SDS011;36409;52.168;20.878;2022-12-15T03:35:48;50.60;;;26.27;;
50483;SDS011;36409;52.168;20.878;2022-12-15T03:38:18;55.43;;;26.43;;
50483;SDS011;36409;52.168;20.878;2022-12-15T03:40:47;54.73;;;28.73;;
50483;SDS011;36409;52.168;20.878;2022-12-15T03:43:17;54.77;;;26.30;;
50483;SDS011;36409;52.168;20.878;2022-12-15T03:45:46;56.90;;;25.47;;
50483;SDS011;36409;52.168;20.878;2022-12-15T03:48:17;52.80;;;25.77;;
50483;SDS011;36409;52.168;20.878;2022-12-15T03:50:47;48.40;;;23.37;;
50483;SDS011;36409;52.168;20.878;2022-12-15T03:53:19;50.87;;;25.17;;
50483;SDS011;36409;52.168;20.878;2022-12-15T03:55:48;50.30;;;25.70;;
50483;SDS011;36409;52.168;20.878;2022-12-15T03:58:18;47.83;;;24.40;;
50483;SDS011;36409;52.168;20.878;2022-12-15T04:00:48;54.40;;;23.43;;
50483;SDS011;36409;52.168;20.878;2022-12-15T04:03:18;53.53;;;25.57;;
50483;SDS011;36409;52.168;20.878;2022-12-15T04:05:47;44.40;;;22.73;;
50483;SDS011;36409;52.168;20.878;2022-12-15T04:08:19;50.53;;;23.93;;
50483;SDS011;36409;52.168;20.878;2022-12-15T04:10:52;56.20;;;26.70;;
50483;SDS011;36409;52.168;20.878;2022-12-15T04:13:21;49.23;;;24.97;;
50483;SDS011;36409;52.168;20.878;2022-12-15T04:15:52;44.37;;;23.70;;
50483;SDS011;36409;52.168;20.878;2022-12-15T04:18:21;53.33;;;26.13;;
50483;SDS011;36409;52.168;20.878;2022-12-15T04:20:52;52.60;;;25.60;;
50483;SDS011;36409;52.168;20.878;2022-12-15T04:23:21;46.43;;;23.77;;
50483;SDS011;36409;52.168;20.878;2022-12-15T04:25:51;54.37;;;25.03;;
50483;SDS011;36409;52.168;20.878;2022-12-15T04:28:39;52.10;;;25.53;;
50483;SDS011;36409;52.168;20.878;2022-12-15T04:31:27;53.37;;;25.17;;
50483;SDS011;36409;52.168;20.878;2022-12-15T04:34:18;55.87;;;26.63;;
50483;SDS011;36409;52.168;20.878;2022-12-15T04:37:09;59.43;;;27.97;;
50483;SDS011;36409;52.168;20.878;2022-12-15T04:39:59;55.40;;;28.03;;
50483;SDS011;36409;52.168;20.878;2022-12-15T04:42:46;55.30;;;26.20;;
50483;SDS011;36409;52.168;20.878;2022-12-15T04:45:34;56.03;;;28.37;;
50483;SDS011;36409;52.168;20.878;2022-12-15T04:48:26;55.73;;;26.67;;
50483;SDS011;36409;52.168;20.878;2022-12-15T04:51:13;55.10;;;27.90;;
50483;SDS011;36409;52.168;20.878;2022-12-15T04:54:00;57.45;;;27.80;;
50483;SDS011;36409;52.168;20.878;2022-12-15T04:56:48;59.33;;;28.40;;
50483;SDS011;36409;52.168;20.878;2022-12-15T04:59:35;56.73;;;27.60;;
50483;SDS011;36409;52.168;20.878;2022-12-15T05:02:22;55.43;;;27.87;;
50483;SDS011;36409;52.168;20.878;2022-12-15T05:05:11;51.03;;;27.57;;
50483;SDS011;36409;52.168;20.878;2022-12-15T05:07:58;53.60;;;28.07;;
50483;SDS011;36409;52.168;20.878;2022-12-15T05:10:46;51.67;;;27.53;;
50483;SDS011;36409;52.168;20.878;2022-12-15T05:13:33;55.27;;;26.33;;
50483;SDS011;36409;52.168;20.878;2022-12-15T05:16:21;51.13;;;25.87;;
50483;SDS011;36409;52.168;20.878;2022-12-15T05:19:08;53.67;;;27.87;;
50483;SDS011;36409;52.168;20.878;2022-12-15T05:21:55;57.93;;;28.67;;
50483;SDS011;36409;52.168;20.878;2022-12-15T05:24:45;60.47;;;29.57;;
50483;SDS011;36409;52.168;20.878;2022-12-15T05:27:32;63.73;;;31.57;;
50483;SDS011;36409;52.168;20.878;2022-12-15T05:30:19;72.90;;;34.53;;
50483;SDS011;36409;52.168;20.878;2022-12-15T05:33:07;68.93;;;33.00;;
50483;SDS011;36409;52.168;20.878;2022-12-15T05:35:38;66.10;;;29.97;;
50483;SDS011;36409;52.168;20.878;2022-12-15T05:38:06;59.83;;;30.73;;
50483;SDS011;36409;52.168;20.878;2022-12-15T05:40:36;63.83;;;30.87;;
50483;SDS011;36409;52.168;20.878;2022-12-15T05:43:06;67.97;;;33.40;;
50483;SDS011;36409;52.168;20.878;2022-12-15T05:45:36;65.25;;;31.30;;
50483;SDS011;36409;52.168;20.878;2022-12-15T05:48:06;60.23;;;31.87;;
50483;SDS011;36409;52.168;20.878;2022-12-15T05:50:35;73.30;;;36.57;;
50483;SDS011;36409;52.168;20.878;2022-12-15T05:53:06;70.03;;;34.90;;
50483;SDS011;36409;52.168;20.878;2022-12-15T05:55:34;71.33;;;33.63;;
50483;SDS011;36409;52.168;20.878;2022-12-15T05:58:05;76.57;;;36.53;;
50483;SDS011;36409;52.168;20.878;2022-12-15T06:00:36;77.13;;;37.80;;
50483;SDS011;36409;52.168;20.878;2022-12-15T06:03:06;74.63;;;35.87;;
50483;SDS011;36409;52.168;20.878;2022-12-15T06:05:35;58.40;;;31.43;;
50483;SDS011;36409;52.168;20.878;2022-12-15T06:08:05;64.37;;;31.57;;
50483;SDS011;36409;52.168;20.878;2022-12-15T06:10:34;64.13;;;32.83;;
50483;SDS011;36409;52.168;20.878;2022-12-15T06:13:06;70.55;;;32.10;;
50483;SDS011;36409;52.168;20.878;2022-12-15T06:15:39;69.60;;;34.20;;
50483;SDS011;36409;52.168;20.878;2022-12-15T06:18:09;62.20;;;31.77;;
50483;SDS011;36409;52.168;20.878;2022-12-15T06:20:38;67.27;;;33.13;;
50483;SDS011;36409;52.168;20.878;2022-12-15T06:23:08;67.57;;;33.50;;
50483;SDS011;36409;52.168;20.878;2022-12-15T06:25:39;61.57;;;31.67;;
50483;SDS011;36409;52.168;20.878;2022-12-15T06:28:09;74.37;;;34.53;;
50483;SDS011;36409;52.168;20.878;2022-12-15T06:30:41;76.30;;;36.40;;
50483;SDS011;36409;52.168;20.878;2022-12-15T06:33:10;71.77;;;35.53;;
50483;SDS011;36409;52.168;20.878;2022-12-15T06:35:39;68.67;;;34.93;;
50483;SDS011;36409;52.168;20.878;2022-12-15T06:38:09;84.53;;;40.37;;
50483;SDS011;36409;52.168;20.878;2022-12-15T06:40:39;74.03;;;37.33;;
50483;SDS011;36409;52.168;20.878;2022-12-15T06:43:10;78.57;;;38.70;;
50483;SDS011;36409;52.168;20.878;2022-12-15T06:45:46;75.83;;;36.93;;
50483;SDS011;36409;52.168;20.878;2022-12-15T06:48:19;70.87;;;36.63;;
50483;SDS011;36409;52.168;20.878;2022-12-15T06:50:54;83.10;;;40.63;;
50483;SDS011;36409;52.168;20.878;2022-12-15T06:53:24;74.43;;;34.40;;
50483;SDS011;36409;52.168;20.878;2022-12-15T06:55:53;76.25;;;38.10;;
50483;SDS011;36409;52.168;20.878;2022-12-15T06:58:28;72.00;;;37.17;;
50483;SDS011;36409;52.168;20.878;2022-12-15T07:00:57;78.05;;;39.60;;
50483;SDS011;36409;52.168;20.878;2022-12-15T07:03:31;82.15;;;41.28;;
50483;SDS011;36409;52.168;20.878;2022-12-15T07:06:02;76.30;;;39.57;;
50483;SDS011;36409;52.168;20.878;2022-12-15T07:08:32;78.77;;;41.50;;
50483;SDS011;36409;52.168;20.878;2022-12-15T07:11:09;86.37;;;41.33;;
50483;SDS011;36409;52.168;20.878;2022-12-15T07:13:39;86.97;;;41.47;;
50483;SDS011;36409;52.168;20.878;2022-12-15T07:16:08;85.37;;;41.00;;
50483;SDS011;36409;52.168;20.878;2022-12-15T07:18:38;78.47;;;39.47;;
50483;SDS011;36409;52.168;20.878;2022-12-15T07:21:08;79.07;;;39.83;;
50483;SDS011;36409;52.168;20.878;2022-12-15T07:23:37;103.37;;;49.37;;
50483;SDS011;36409;52.168;20.878;2022-12-15T07:26:22;92.07;;;43.30;;
50483;SDS011;36409;52.168;20.878;2022-12-15T07:28:52;110.27;;;47.87;;
50483;SDS011;36409;52.168;20.878;2022-12-15T07:31:21;85.83;;;39.33;;
50483;SDS011;36409;52.168;20.878;2022-12-15T07:33:51;77.63;;;37.70;;
50483;SDS011;36409;52.168;20.878;2022-12-15T07:36:20;83.30;;;39.10;;
50483;SDS011;36409;52.168;20.878;2022-12-15T07:38:50;86.37;;;42.03;;
50483;SDS011;36409;52.168;20.878;2022-12-15T07:41:23;76.50;;;36.88;;
50483;SDS011;36409;52.168;20.878;2022-12-15T07:43:52;96.67;;;48.10;;
50483;SDS011;36409;52.168;20.878;2022-12-15T07:46:21;118.35;;;59.70;;
50483;SDS011;36409;52.168;20.878;2022-12-15T07:48:52;111.80;;;59.57;;
50483;SDS011;36409;52.168;20.878;2022-12-15T07:51:21;112.93;;;59.40;;
50483;SDS011;36409;52.168;20.878;2022-12-15T07:53:50;98.33;;;51.70;;
50483;SDS011;36409;52.168;20.878;2022-12-15T07:56:19;101.07;;;50.57;;
50483;SDS011;36409;52.168;20.878;2022-12-15T07:58:49;93.70;;;46.53;;
50483;SDS011;36409;52.168;20.878;2022-12-15T08:01:19;104.50;;;53.87;;
50483;SDS011;36409;52.168;20.878;2022-12-15T08:03:48;97.87;;;51.13;;
50483;SDS011;36409;52.168;20.878;2022-12-15T08:06:18;108.43;;;55.97;;
50483;SDS011;36409;52.168;20.878;2022-12-15T08:08:47;121.17;;;60.00;;
50483;SDS011;36409;52.168;20.878;2022-12-15T08:11:19;97.63;;;49.63;;
50483;SDS011;36409;52.168;20.878;2022-12-15T08:13:50;137.93;;;69.17;;
50483;SDS011;36409;52.168;20.878;2022-12-15T08:16:30;127.73;;;65.17;;
50483;SDS011;36409;52.168;20.878;2022-12-15T08:19:01;97.10;;;49.20;;
50483;SDS011;36409;52.168;20.878;2022-12-15T08:21:31;93.17;;;46.50;;
50483;SDS011;36409;52.168;20.878;2022-12-15T08:24:00;96.63;;;49.93;;
50483;SDS011;36409;52.168;20.878;2022-12-15T08:26:30;95.03;;;48.03;;
50483;SDS011;36409;52.168;20.878;2022-12-15T08:29:00;95.73;;;46.83;;
50483;SDS011;36409;52.168;20.878;2022-12-15T08:31:50;86.90;;;46.43;;
50483;SDS011;36409;52.168;20.878;2022-12-15T08:34:21;97.57;;;47.17;;
50483;SDS011;36409;52.168;20.878;2022-12-15T08:36:50;92.47;;;45.40;;
50483;SDS011;36409;52.168;20.878;2022-12-15T08:39:22;87.47;;;41.97;;
50483;SDS011;36409;52.168;20.878;2022-12-15T08:41:50;81.60;;;40.60;;
50483;SDS011;36409;52.168;20.878;2022-12-15T08:44:22;96.20;;;44.63;;
50483;SDS011;36409;52.168;20.878;2022-12-15T08:46:51;104.50;;;51.00;;
50483;SDS011;36409;52.168;20.878;2022-12-15T08:49:20;93.80;;;47.50;;
50483;SDS011;36409;52.168;20.878;2022-12-15T08:51:49;103.47;;;49.53;;
50483;SDS011;36409;52.168;20.878;2022-12-15T08:54:19;98.20;;;49.60;;
50483;SDS011;36409;52.168;20.878;2022-12-15T08:56:48;101.77;;;49.87;;
50483;SDS011;36409;52.168;20.878;2022-12-15T08:59:17;109.00;;;51.77;;
50483;SDS011;36409;52.168;20.878;2022-12-15T09:01:46;111.43;;;57.40;;
50483;SDS011;36409;52.168;20.878;2022-12-15T09:04:15;107.37;;;54.67;;
50483;SDS011;36409;52.168;20.878;2022-12-15T09:06:44;105.30;;;54.57;;
50483;SDS011;36409;52.168;20.878;2022-12-15T09:09:17;109.63;;;55.50;;
50483;SDS011;36409;52.168;20.878;2022-12-15T09:11:47;97.43;;;50.13;;
50483;SDS011;36409;52.168;20.878;2022-12-15T09:14:16;100.90;;;48.17;;
50483;SDS011;36409;52.168;20.878;2022-12-15T09:16:54;103.97;;;50.87;;
50483;SDS011;36409;52.168;20.878;2022-12-15T09:19:23;100.97;;;49.30;;
50483;SDS011;36409;52.168;20.878;2022-12-15T09:21:54;82.27;;;38.93;;
50483;SDS011;36409;52.168;20.878;2022-12-15T09:24:23;92.73;;;46.80;;
50483;SDS011;36409;52.168;20.878;2022-12-15T09:27:02;81.87;;;39.97;;
50483;SDS011;36409;52.168;20.878;2022-12-15T09:29:31;65.53;;;34.47;;
50483;SDS011;36409;52.168;20.878;2022-12-15T09:32:00;67.17;;;33.87;;
50483;SDS011;36409;52.168;20.878;2022-12-15T09:34:33;63.87;;;32.27;;
50483;SDS011;36409;52.168;20.878;2022-12-15T09:37:02;63.00;;;33.17;;
50483;SDS011;36409;52.168;20.878;2022-12-15T09:39:31;64.33;;;31.73;;
50483;SDS011;36409;52.168;20.878;2022-12-15T09:42:00;71.83;;;35.17;;
50483;SDS011;36409;52.168;20.878;2022-12-15T09:44:29;71.43;;;36.30;;
50483;SDS011;36409;52.168;20.878;2022-12-15T09:47:14;76.97;;;41.63;;
50483;SDS011;36409;52.168;20.878;2022-12-15T09:49:54;83.30;;;44.47;;
50483;SDS011;36409;52.168;20.878;2022-12-15T09:52:25;89.60;;;45.88;;
50483;SDS011;36409;52.168;20.878;2022-12-15T09:54:56;87.40;;;43.40;;
50483;SDS011;36409;52.168;20.878;2022-12-15T09:57:34;83.80;;;44.00;;
50483;SDS011;36409;52.168;20.878;2022-12-15T10:00:09;89.93;;;42.60;;
50483;SDS011;36409;52.168;20.878;2022-12-15T10:02:54;83.10;;;41.47;;
50483;SDS011;36409;52.168;20.878;2022-12-15T10:06:00;103.67;;;50.83;;
50483;SDS011;36409;52.168;20.878;2022-12-15T10:08:44;100.17;;;50.13;;
50483;SDS011;36409;52.168;20.878;2022-12-15T10:11:22;85.30;;;41.70;;
50483;SDS011;36409;52.168;20.878;2022-12-15T10:14:05;119.33;;;54.73;;
50483;SDS011;36409;52.168;20.878;2022-12-15T10:16:44;90.27;;;44.47;;
50483;SDS011;36409;52.168;20.878;2022-12-15T10:19:25;88.37;;;43.40;;
50483;SDS011;36409;52.168;20.878;2022-12-15T10:21:58;78.97;;;39.07;;
50483;SDS011;36409;52.168;20.878;2022-12-15T10:24:28;69.90;;;31.03;;
50483;SDS011;36409;52.168;20.878;2022-12-15T10:27:35;77.03;;;36.75;;
50483;SDS011;36409;52.168;20.878;2022-12-15T10:30:28;71.90;;;36.17;;
50483;SDS011;36409;52.168;20.878;2022-12-15T10:32:59;75.80;;;36.37;;
50483;SDS011;36409;52.168;20.878;2022-12-15T10:35:31;85.27;;;39.53;;
50483;SDS011;36409;52.168;20.878;2022-12-15T10:38:05;92.82;;;41.25;;
50483;SDS011;36409;52.168;20.878;2022-12-15T10:40:44;84.97;;;41.23;;
50483;SDS011;36409;52.168;20.878;2022-12-15T10:43:36;85.43;;;43.37;;
50483;SDS011;36409;52.168;20.878;2022-12-15T10:46:10;95.03;;;45.70;;
50483;SDS011;36409;52.168;20.878;2022-12-15T10:51:14;93.83;;;42.53;;
50483;SDS011;36409;52.168;20.878;2022-12-15T10:53:46;97.40;;;45.73;;
50483;SDS011;36409;52.168;20.878;2022-12-15T10:56:19;82.10;;;41.17;;
50483;SDS011;36409;52.168;20.878;2022-12-15T10:58:59;83.23;;;40.00;;
50483;SDS011;36409;52.168;20.878;2022-12-15T11:01:31;79.17;;;39.10;;
50483;SDS011;36409;52.168;20.878;2022-12-15T11:04:02;85.33;;;41.77;;
50483;SDS011;36409;52.168;20.878;2022-12-15T11:06:32;84.47;;;42.17;;
50483;SDS011;36409;52.168;20.878;2022-12-15T11:11:53;88.90;;;44.77;;
50483;SDS011;36409;52.168;20.878;2022-12-15T11:14:42;83.90;;;44.80;;
50483;SDS011;36409;52.168;20.878;2022-12-15T11:17:14;83.17;;;40.80;;
50483;SDS011;36409;52.168;20.878;2022-12-15T11:19:48;87.00;;;43.03;;
50483;SDS011;36409;52.168;20.878;2022-12-15T11:22:39;91.40;;;42.07;;
50483;SDS011;36409;52.168;20.878;2022-12-15T11:25:27;86.40;;;42.00;;
50483;SDS011;36409;52.168;20.878;2022-12-15T11:28:01;83.47;;;38.90;;
50483;SDS011;36409;52.168;20.878;2022-12-15T11:30:34;74.77;;;35.37;;
50483;SDS011;36409;52.168;20.878;2022-12-15T11:33:09;89.40;;;43.47;;
50483;SDS011;36409;52.168;20.878;2022-12-15T11:35:42;84.50;;;40.60;;
50483;SDS011;36409;52.168;20.878;2022-12-15T11:38:25;82.07;;;40.53;;
50483;SDS011;36409;52.168;20.878;2022-12-15T11:41:04;78.13;;;36.00;;
50483;SDS011;36409;52.168;20.878;2022-12-15T11:43:44;87.47;;;38.40;;
50483;SDS011;36409;52.168;20.878;2022-12-15T11:46:50;97.43;;;45.13;;
50483;SDS011;36409;52.168;20.878;2022-12-15T11:49:37;102.30;;;47.90;;
50483;SDS011;36409;52.168;20.878;2022-12-15T11:52:27;91.13;;;43.03;;
50483;SDS011;36409;52.168;20.878;2022-12-15T11:55:19;101.20;;;45.07;;
50483;SDS011;36409;52.168;20.878;2022-12-15T12:01:00;93.43;;;43.80;;
50483;SDS011;36409;52.168;20.878;2022-12-15T12:03:37;96.45;;;45.00;;
50483;SDS011;36409;52.168;20.878;2022-12-15T12:06:23;82.50;;;38.10;;
50483;SDS011;36409;52.168;20.878;2022-12-15T12:09:02;96.37;;;44.67;;
50483;SDS011;36409;52.168;20.878;2022-12-15T12:11:46;103.53;;;47.70;;
50483;SDS011;36409;52.168;20.878;2022-12-15T12:14:26;91.67;;;44.80;;
50483;SDS011;36409;52.168;20.878;2022-12-15T12:17:06;97.35;;;42.25;;
50483;SDS011;36409;52.168;20.878;2022-12-15T12:19:41;102.83;;;46.43;;
50483;SDS011;36409;52.168;20.878;2022-12-15T12:22:19;94.37;;;43.03;;
50483;SDS011;36409;52.168;20.878;2022-12-15T12:24:54;98.27;;;43.40;;
50483;SDS011;36409;52.168;20.878;2022-12-15T12:30:01;93.27;;;43.60;;
50483;SDS011;36409;52.168;20.878;2022-12-15T12:32:38;97.03;;;43.53;;
50483;SDS011;36409;52.168;20.878;2022-12-15T12:35:20;85.37;;;40.37;;
50483;SDS011;36409;52.168;20.878;2022-12-15T12:37:59;96.83;;;43.50;;
50483;SDS011;36409;52.168;20.878;2022-12-15T12:40:40;87.90;;;40.57;;
50483;SDS011;36409;52.168;20.878;2022-12-15T12:43:24;87.37;;;39.93;;
50483;SDS011;36409;52.168;20.878;2022-12-15T12:46:01;88.57;;;40.50;;
50483;SDS011;36409;52.168;20.878;2022-12-15T12:48:37;95.70;;;40.97;;
50483;SDS011;36409;52.168;20.878;2022-12-15T12:51:16;96.65;;;44.75;;
50483;SDS011;36409;52.168;20.878;2022-12-15T12:53:52;89.45;;;42.35;;
50483;SDS011;36409;52.168;20.878;2022-12-15T12:56:30;88.47;;;40.60;;
50483;SDS011;36409;52.168;20.878;2022-12-15T13:05:20;94.30;;;41.13;;
50483;SDS011;36409;52.168;20.878;2022-12-15T13:14:29;78.97;;;36.20;;
50483;SDS011;36409;52.168;20.878;2022-12-15T13:17:12;80.50;;;35.80;;
50483;SDS011;36409;52.168;20.878;2022-12-15T13:20:05;71.03;;;34.53;;
50483;SDS011;36409;52.168;20.878;2022-12-15T13:22:53;77.83;;;33.20;;
50483;SDS011;36409;52.168;20.878;2022-12-15T13:25:45;76.90;;;34.03;;
50483;SDS011;36409;52.168;20.878;2022-12-15T13:28:42;63.20;;;30.77;;
50483;SDS011;36409;52.168;20.878;2022-12-15T13:31:24;71.67;;;32.30;;
50483;SDS011;36409;52.168;20.878;2022-12-15T13:34:11;71.53;;;32.90;;
50483;SDS011;36409;52.168;20.878;2022-12-15T13:36:54;72.13;;;31.43;;
50483;SDS011;36409;52.168;20.878;2022-12-15T13:39:31;69.17;;;31.67;;
50483;SDS011;36409;52.168;20.878;2022-12-15T13:42:27;72.50;;;30.90;;
50483;SDS011;36409;52.168;20.878;2022-12-15T13:45:37;69.37;;;32.93;;
50483;SDS011;36409;52.168;20.878;2022-12-15T13:48:21;78.30;;;34.90;;
50483;SDS011;36409;52.168;20.878;2022-12-15T13:51:03;93.07;;;39.40;;
50483;SDS011;36409;52.168;20.878;2022-12-15T13:53:42;76.13;;;32.97;;
50483;SDS011;36409;52.168;20.878;2022-12-15T13:56:22;87.40;;;36.77;;
50483;SDS011;36409;52.168;20.878;2022-12-15T13:58:58;84.47;;;33.33;;
50483;SDS011;36409;52.168;20.878;2022-12-15T14:01:31;76.57;;;32.07;;
50483;SDS011;36409;52.168;20.878;2022-12-15T14:04:05;64.97;;;26.57;;
50483;SDS011;36409;52.168;20.878;2022-12-15T14:06:44;67.83;;;27.57;;
50483;SDS011;36409;52.168;20.878;2022-12-15T14:09:19;71.23;;;28.20;;
50483;SDS011;36409;52.168;20.878;2022-12-15T14:11:52;72.20;;;29.03;;
50483;SDS011;36409;52.168;20.878;2022-12-15T14:14:23;65.90;;;28.27;;
50483;SDS011;36409;52.168;20.878;2022-12-15T14:16:58;83.57;;;33.67;;
50483;SDS011;36409;52.168;20.878;2022-12-15T14:19:39;61.23;;;27.10;;
50483;SDS011;36409;52.168;20.878;2022-12-15T14:22:20;74.37;;;30.10;;
50483;SDS011;36409;52.168;20.878;2022-12-15T14:25:00;71.30;;;27.63;;
50483;SDS011;36409;52.168;20.878;2022-12-15T14:27:39;68.13;;;27.27;;
50483;SDS011;36409;52.168;20.878;2022-12-15T14:30:14;47.77;;;20.53;;
50483;SDS011;36409;52.168;20.878;2022-12-15T14:32:49;65.00;;;25.90;;
50483;SDS011;36409;52.168;20.878;2022-12-15T14:35:24;59.55;;;25.10;;
50483;SDS011;36409;52.168;20.878;2022-12-15T14:37:58;68.30;;;27.90;;
50483;SDS011;36409;52.168;20.878;2022-12-15T14:40:33;75.13;;;27.80;;
50483;SDS011;36409;52.168;20.878;2022-12-15T14:43:17;65.97;;;27.30;;
50483;SDS011;36409;52.168;20.878;2022-12-15T14:45:50;77.03;;;31.37;;
50483;SDS011;36409;52.168;20.878;2022-12-15T14:48:27;79.03;;;32.00;;
50483;SDS011;36409;52.168;20.878;2022-12-15T14:51:10;85.70;;;33.80;;
50483;SDS011;36409;52.168;20.878;2022-12-15T14:53:41;63.83;;;26.00;;
50483;SDS011;36409;52.168;20.878;2022-12-15T14:56:21;94.20;;;35.85;;
50483;SDS011;36409;52.168;20.878;2022-12-15T14:58:58;83.53;;;31.40;;
50483;SDS011;36409;52.168;20.878;2022-12-15T15:01:33;87.60;;;34.35;;
50483;SDS011;36409;52.168;20.878;2022-12-15T15:04:21;93.73;;;34.27;;
50483;SDS011;36409;52.168;20.878;2022-12-15T15:06:53;94.57;;;35.20;;
50483;SDS011;36409;52.168;20.878;2022-12-15T15:09:25;91.67;;;38.90;;
50483;SDS011;36409;52.168;20.878;2022-12-15T15:11:58;94.23;;;37.93;;
50483;SDS011;36409;52.168;20.878;2022-12-15T15:14:30;93.33;;;36.13;;
50483;SDS011;36409;52.168;20.878;2022-12-15T15:17:06;89.77;;;34.83;;
50483;SDS011;36409;52.168;20.878;2022-12-15T15:19:45;81.87;;;32.80;;
50483;SDS011;36409;52.168;20.878;2022-12-15T15:22:30;80.40;;;32.23;;
50483;SDS011;36409;52.168;20.878;2022-12-15T15:50:28;100.07;;;39.57;;
50483;SDS011;36409;52.168;20.878;2022-12-15T15:52:58;94.73;;;38.70;;